CHRK1: Big Hill Creek, Cherryvale, KS

                                SHEF ID:       CHRK1     BIG HILL C NR CHERRYVALE, KS
STATION TYPE:
Regulating: Stage = 15.00, Flow = 1525

PRECIP STAGE RIV-FLOW BAT-LOAD
in ft cfs volt
Ccp-Rev Ccp-Rev Ccp-Rev Ccp-Rev
(America/Chicago)
04/30 00:00 0.00 6.18 198 12.17
04/30 01:00 0.00 6.16 196 12.14
04/30 02:00 0.00 6.09 191 12.11
04/30 03:00 0.00 6.07 189 12.09
04/30 04:00 0.00 6.01 184 12.04
04/30 05:00 0.00 5.98 182 12.01
04/30 06:00 0.00 5.91 177 11.98
04/30 07:00 0.00 5.89 175 11.92
04/30 08:00 0.00 5.86 173 12.19
04/30 09:00 0.00 5.80 169 12.80
04/30 10:00 0.00 5.78 167 12.70
04/30 11:00 0.00 5.76 166 12.63
04/30 12:00 0.00 5.69 160 12.64
04/30 13:00 0.00 5.67 159 12.65
04/30 14:00 0.00 5.64 157 12.57
04/30 15:00 0.00 5.61 155 12.50
04/30 16:00 0.00 5.57 152 12.45
04/30 17:00 0.00 5.51 148 12.45
04/30 18:00 0.00 5.50 147 12.44
04/30 19:00 0.00 5.47 145 12.40
04/30 20:00 0.00 5.45 143 12.27
04/30 21:00 0.00 5.42 141 12.23
04/30 22:00 0.00 5.40 140 12.21
04/30 23:00 ---- ---- ---- ----
Data processed at Fri 01May2026 04:37 GMT

NOTICE: If you are parsing this page

Please convert to using our Data API. Starting early 2026 we will be migrating to: https://water.usace.army.mil with modern pages rendered in JavaScript. When this migration completes you will no longer be able to scrape this page! CWMSDataAPI (CDA)

Timeseries IDs (TSIDs)

TSIDs used from left to right in the data table
CHER.Precip-Inc.Total.1Hour.1Hour.Ccp-Rev
CHER.Stage.Inst.1Hour.0.Ccp-Rev
CHER.Flow.Inst.1Hour.0.Ccp-Rev
CHER.Volt-Battery Load.Inst.1Hour.0.Ccp-Rev

                            

All information presented herein is the property of the government of the United States of America and may be revised or deleted at any time without prior notice. Dissemination of this information without the expressed written consent of the Public Affairs Office, Tulsa District U.S. Army Corps of Engineers is strictly prohibited. These data are gathered electronically and, as presented, have NOT undergone any form of quality control. These data are NOT guaranteed to be valid or correct.